sensor_id;sensor_type;location;lat;lon;timestamp;temperature;humidity
78054;DHT22;67726;45.636;11.752;2023-07-29T00:01:34;24.50;70.60
78054;DHT22;67726;45.636;11.752;2023-07-29T00:03:59;24.50;71.40
78054;DHT22;67726;45.636;11.752;2023-07-29T00:06:26;24.40;70.30
78054;DHT22;67726;45.636;11.752;2023-07-29T00:08:51;24.30;70.70
78054;DHT22;67726;45.636;11.752;2023-07-29T00:11:17;24.20;69.90
78054;DHT22;67726;45.636;11.752;2023-07-29T00:13:43;24.20;70.70
78054;DHT22;67726;45.636;11.752;2023-07-29T00:16:08;24.10;70.90
78054;DHT22;67726;45.636;11.752;2023-07-29T00:18:34;24.10;70.90
78054;DHT22;67726;45.636;11.752;2023-07-29T00:21:00;24.00;70.60
78054;DHT22;67726;45.636;11.752;2023-07-29T00:23:25;24.00;71.10
78054;DHT22;67726;45.636;11.752;2023-07-29T00:25:51;24.00;71.50
78054;DHT22;67726;45.636;11.752;2023-07-29T00:28:17;24.00;72.10
78054;DHT22;67726;45.636;11.752;2023-07-29T00:30:42;23.90;72.60
78054;DHT22;67726;45.636;11.752;2023-07-29T00:33:08;23.90;72.30
78054;DHT22;67726;45.636;11.752;2023-07-29T00:35:34;23.90;71.40
78054;DHT22;67726;45.636;11.752;2023-07-29T00:38:00;23.80;71.50
78054;DHT22;67726;45.636;11.752;2023-07-29T00:40:28;23.80;72.10
78054;DHT22;67726;45.636;11.752;2023-07-29T00:42:54;23.80;71.20
78054;DHT22;67726;45.636;11.752;2023-07-29T00:45:20;23.80;72.00
78054;DHT22;67726;45.636;11.752;2023-07-29T00:47:46;23.80;71.70
78054;DHT22;67726;45.636;11.752;2023-07-29T00:50:13;23.70;71.60
78054;DHT22;67726;45.636;11.752;2023-07-29T00:52:39;23.70;72.60
78054;DHT22;67726;45.636;11.752;2023-07-29T00:55:06;23.70;72.20
78054;DHT22;67726;45.636;11.752;2023-07-29T00:57:32;23.70;71.50
78054;DHT22;67726;45.636;11.752;2023-07-29T01:00:00;23.60;73.60
78054;DHT22;67726;45.636;11.752;2023-07-29T01:02:26;23.60;73.80
78054;DHT22;67726;45.636;11.752;2023-07-29T01:04:54;23.50;74.00
78054;DHT22;67726;45.636;11.752;2023-07-29T01:07:47;23.40;74.10
78054;DHT22;67726;45.636;11.752;2023-07-29T01:10:51;23.40;74.30
78054;DHT22;67726;45.636;11.752;2023-07-29T01:13:58;23.30;74.20
78054;DHT22;67726;45.636;11.752;2023-07-29T01:16:39;23.20;74.40
78054;DHT22;67726;45.636;11.752;2023-07-29T01:19:06;23.20;74.30
78054;DHT22;67726;45.636;11.752;2023-07-29T01:21:38;23.20;74.40
78054;DHT22;67726;45.636;11.752;2023-07-29T01:24:04;23.10;74.70
78054;DHT22;67726;45.636;11.752;2023-07-29T01:26:30;23.00;74.50
78054;DHT22;67726;45.636;11.752;2023-07-29T01:28:57;23.00;74.90
78054;DHT22;67726;45.636;11.752;2023-07-29T01:31:29;23.00;74.80
78054;DHT22;67726;45.636;11.752;2023-07-29T01:34:01;23.00;74.60
78054;DHT22;67726;45.636;11.752;2023-07-29T01:36:33;23.00;74.90
78054;DHT22;67726;45.636;11.752;2023-07-29T01:39:00;23.00;75.10
78054;DHT22;67726;45.636;11.752;2023-07-29T01:41:27;23.00;75.10
78054;DHT22;67726;45.636;11.752;2023-07-29T01:43:53;23.00;75.00
78054;DHT22;67726;45.636;11.752;2023-07-29T01:46:20;23.00;74.80
78054;DHT22;67726;45.636;11.752;2023-07-29T01:48:45;23.00;74.90
78054;DHT22;67726;45.636;11.752;2023-07-29T01:51:12;23.00;75.00
78054;DHT22;67726;45.636;11.752;2023-07-29T01:53:38;22.90;74.80
78054;DHT22;67726;45.636;11.752;2023-07-29T01:56:03;22.80;74.80
78054;DHT22;67726;45.636;11.752;2023-07-29T01:58:29;22.90;74.90
78054;DHT22;67726;45.636;11.752;2023-07-29T02:00:55;22.80;75.00
78054;DHT22;67726;45.636;11.752;2023-07-29T02:03:20;22.90;74.90
78054;DHT22;67726;45.636;11.752;2023-07-29T02:05:46;22.80;74.90
78054;DHT22;67726;45.636;11.752;2023-07-29T02:08:12;22.80;75.10
78054;DHT22;67726;45.636;11.752;2023-07-29T02:10:37;22.90;74.80
78054;DHT22;67726;45.636;11.752;2023-07-29T02:13:04;22.80;74.80
78054;DHT22;67726;45.636;11.752;2023-07-29T02:15:29;22.80;76.20
78054;DHT22;67726;45.636;11.752;2023-07-29T02:17:55;22.70;75.80
78054;DHT22;67726;45.636;11.752;2023-07-29T02:20:21;22.70;75.70
78054;DHT22;67726;45.636;11.752;2023-07-29T02:22:46;22.70;75.80
78054;DHT22;67726;45.636;11.752;2023-07-29T02:25:14;22.60;75.50
78054;DHT22;67726;45.636;11.752;2023-07-29T02:27:39;22.60;75.30
78054;DHT22;67726;45.636;11.752;2023-07-29T02:30:06;22.50;75.20
78054;DHT22;67726;45.636;11.752;2023-07-29T02:32:31;22.50;75.30
78054;DHT22;67726;45.636;11.752;2023-07-29T02:34:57;22.40;75.40
78054;DHT22;67726;45.636;11.752;2023-07-29T02:37:23;22.40;75.30
78054;DHT22;67726;45.636;11.752;2023-07-29T02:39:48;22.40;75.60
78054;DHT22;67726;45.636;11.752;2023-07-29T02:42:14;22.40;75.40
78054;DHT22;67726;45.636;11.752;2023-07-29T02:44:40;22.30;75.30
78054;DHT22;67726;45.636;11.752;2023-07-29T02:47:05;22.30;75.20
78054;DHT22;67726;45.636;11.752;2023-07-29T02:49:31;22.30;75.20
78054;DHT22;67726;45.636;11.752;2023-07-29T02:51:57;22.30;75.00
78054;DHT22;67726;45.636;11.752;2023-07-29T02:54:22;22.20;75.00
78054;DHT22;67726;45.636;11.752;2023-07-29T02:56:50;22.30;75.10
78054;DHT22;67726;45.636;11.752;2023-07-29T02:59:16;22.30;75.10
78054;DHT22;67726;45.636;11.752;2023-07-29T03:01:42;22.30;74.90
78054;DHT22;67726;45.636;11.752;2023-07-29T03:04:08;22.30;74.70
78054;DHT22;67726;45.636;11.752;2023-07-29T03:06:33;22.30;74.80
78054;DHT22;67726;45.636;11.752;2023-07-29T03:08:59;22.30;75.00
78054;DHT22;67726;45.636;11.752;2023-07-29T03:11:25;22.20;74.70
78054;DHT22;67726;45.636;11.752;2023-07-29T03:13:50;22.20;74.70
78054;DHT22;67726;45.636;11.752;2023-07-29T03:16:17;22.20;74.70
78054;DHT22;67726;45.636;11.752;2023-07-29T03:18:44;22.20;74.70
78054;DHT22;67726;45.636;11.752;2023-07-29T03:21:10;22.20;74.50
78054;DHT22;67726;45.636;11.752;2023-07-29T03:23:37;22.30;74.50
78054;DHT22;67726;45.636;11.752;2023-07-29T03:26:03;22.20;74.50
78054;DHT22;67726;45.636;11.752;2023-07-29T03:28:36;22.20;74.50
78054;DHT22;67726;45.636;11.752;2023-07-29T03:31:02;22.30;74.30
78054;DHT22;67726;45.636;11.752;2023-07-29T03:33:28;22.30;74.20
78054;DHT22;67726;45.636;11.752;2023-07-29T03:35:54;22.30;74.30
78054;DHT22;67726;45.636;11.752;2023-07-29T03:38:19;22.30;74.30
78054;DHT22;67726;45.636;11.752;2023-07-29T03:40:45;22.30;74.10
78054;DHT22;67726;45.636;11.752;2023-07-29T03:43:11;22.30;74.00
78054;DHT22;67726;45.636;11.752;2023-07-29T03:45:38;22.40;74.20
78054;DHT22;67726;45.636;11.752;2023-07-29T03:48:04;22.30;73.90
78054;DHT22;67726;45.636;11.752;2023-07-29T03:50:30;22.40;73.80
78054;DHT22;67726;45.636;11.752;2023-07-29T03:52:56;22.30;73.80
78054;DHT22;67726;45.636;11.752;2023-07-29T03:55:22;22.20;74.10
78054;DHT22;67726;45.636;11.752;2023-07-29T03:57:48;22.10;74.30
78054;DHT22;67726;45.636;11.752;2023-07-29T04:00:14;22.20;74.40
78054;DHT22;67726;45.636;11.752;2023-07-29T04:02:41;22.20;74.60
78054;DHT22;67726;45.636;11.752;2023-07-29T04:05:08;22.20;74.70
78054;DHT22;67726;45.636;11.752;2023-07-29T04:07:37;22.20;74.60
78054;DHT22;67726;45.636;11.752;2023-07-29T04:10:03;22.30;74.30
78054;DHT22;67726;45.636;11.752;2023-07-29T04:12:30;22.30;74.20
78054;DHT22;67726;45.636;11.752;2023-07-29T04:14:56;22.30;74.30
78054;DHT22;67726;45.636;11.752;2023-07-29T04:17:22;22.40;74.20
78054;DHT22;67726;45.636;11.752;2023-07-29T04:19:47;22.50;74.50
78054;DHT22;67726;45.636;11.752;2023-07-29T04:22:15;22.60;74.10
78054;DHT22;67726;45.636;11.752;2023-07-29T04:24:40;22.60;74.30
78054;DHT22;67726;45.636;11.752;2023-07-29T04:27:06;22.70;73.90
78054;DHT22;67726;45.636;11.752;2023-07-29T04:29:32;22.80;73.90
78054;DHT22;67726;45.636;11.752;2023-07-29T04:31:57;22.90;73.80
78054;DHT22;67726;45.636;11.752;2023-07-29T04:34:23;23.00;73.90
78054;DHT22;67726;45.636;11.752;2023-07-29T04:36:49;23.00;73.70
78054;DHT22;67726;45.636;11.752;2023-07-29T04:39:15;23.20;73.70
78054;DHT22;67726;45.636;11.752;2023-07-29T04:41:40;23.30;73.00
78054;DHT22;67726;45.636;11.752;2023-07-29T04:44:06;23.30;73.50
78054;DHT22;67726;45.636;11.752;2023-07-29T04:46:33;23.50;72.50
78054;DHT22;67726;45.636;11.752;2023-07-29T04:48:58;23.50;72.60
78054;DHT22;67726;45.636;11.752;2023-07-29T04:51:24;23.70;70.10
78054;DHT22;67726;45.636;11.752;2023-07-29T04:53:50;23.80;69.90
78054;DHT22;67726;45.636;11.752;2023-07-29T04:56:16;24.00;69.50
78054;DHT22;67726;45.636;11.752;2023-07-29T04:58:42;24.10;69.00
78054;DHT22;67726;45.636;11.752;2023-07-29T05:01:07;24.20;68.70
78054;DHT22;67726;45.636;11.752;2023-07-29T05:03:33;24.30;68.50
78054;DHT22;67726;45.636;11.752;2023-07-29T05:05:59;24.50;67.10
78054;DHT22;67726;45.636;11.752;2023-07-29T05:08:28;24.60;66.80
78054;DHT22;67726;45.636;11.752;2023-07-29T05:10:54;24.70;66.50
78054;DHT22;67726;45.636;11.752;2023-07-29T05:13:20;24.80;66.00
78054;DHT22;67726;45.636;11.752;2023-07-29T05:15:47;24.80;65.90
78054;DHT22;67726;45.636;11.752;2023-07-29T05:18:14;24.80;66.10
78054;DHT22;67726;45.636;11.752;2023-07-29T05:20:40;25.10;65.40
78054;DHT22;67726;45.636;11.752;2023-07-29T05:23:05;25.20;65.20
78054;DHT22;67726;45.636;11.752;2023-07-29T05:25:31;25.30;65.00
78054;DHT22;67726;45.636;11.752;2023-07-29T05:27:57;25.40;65.30
78054;DHT22;67726;45.636;11.752;2023-07-29T05:30:23;25.60;64.60
78054;DHT22;67726;45.636;11.752;2023-07-29T05:32:48;25.50;64.60
78054;DHT22;67726;45.636;11.752;2023-07-29T05:35:14;25.70;65.00
78054;DHT22;67726;45.636;11.752;2023-07-29T05:37:40;26.70;62.50
78054;DHT22;67726;45.636;11.752;2023-07-29T05:40:07;27.50;60.70
78054;DHT22;67726;45.636;11.752;2023-07-29T05:42:34;28.50;58.70
78054;DHT22;67726;45.636;11.752;2023-07-29T05:45:00;29.60;54.60
78054;DHT22;67726;45.636;11.752;2023-07-29T05:47:26;30.90;51.80
78054;DHT22;67726;45.636;11.752;2023-07-29T05:49:52;31.70;49.00
78054;DHT22;67726;45.636;11.752;2023-07-29T05:52:18;32.20;46.20
78054;DHT22;67726;45.636;11.752;2023-07-29T05:54:44;32.80;45.00
78054;DHT22;67726;45.636;11.752;2023-07-29T05:57:13;33.30;43.00
78054;DHT22;67726;45.636;11.752;2023-07-29T05:59:39;33.10;41.70
78054;DHT22;67726;45.636;11.752;2023-07-29T06:02:04;32.80;41.40
78054;DHT22;67726;45.636;11.752;2023-07-29T06:04:30;33.00;43.20
78054;DHT22;67726;45.636;11.752;2023-07-29T06:06:56;33.20;42.10
78054;DHT22;67726;45.636;11.752;2023-07-29T06:09:22;33.60;41.60
78054;DHT22;67726;45.636;11.752;2023-07-29T06:11:48;34.20;41.00
78054;DHT22;67726;45.636;11.752;2023-07-29T06:14:15;34.30;39.70
78054;DHT22;67726;45.636;11.752;2023-07-29T06:16:41;35.20;38.60
78054;DHT22;67726;45.636;11.752;2023-07-29T06:19:07;36.10;35.50
78054;DHT22;67726;45.636;11.752;2023-07-29T06:21:34;35.80;35.50
78054;DHT22;67726;45.636;11.752;2023-07-29T06:24:00;35.80;36.10
78054;DHT22;67726;45.636;11.752;2023-07-29T06:26:26;36.60;36.00
78054;DHT22;67726;45.636;11.752;2023-07-29T06:28:52;37.20;35.30
78054;DHT22;67726;45.636;11.752;2023-07-29T06:31:17;37.70;33.50
78054;DHT22;67726;45.636;11.752;2023-07-29T06:33:43;38.10;32.60
78054;DHT22;67726;45.636;11.752;2023-07-29T06:36:09;38.10;32.10
78054;DHT22;67726;45.636;11.752;2023-07-29T06:38:34;38.00;32.50
78054;DHT22;67726;45.636;11.752;2023-07-29T06:41:00;38.20;31.60
78054;DHT22;67726;45.636;11.752;2023-07-29T06:43:26;38.60;31.70
78054;DHT22;67726;45.636;11.752;2023-07-29T06:45:51;38.90;30.90
78054;DHT22;67726;45.636;11.752;2023-07-29T06:48:17;39.20;30.30
78054;DHT22;67726;45.636;11.752;2023-07-29T06:50:44;39.10;29.10
78054;DHT22;67726;45.636;11.752;2023-07-29T06:53:10;39.00;30.40
78054;DHT22;67726;45.636;11.752;2023-07-29T06:55:35;39.40;29.90
78054;DHT22;67726;45.636;11.752;2023-07-29T06:58:01;39.60;29.20
78054;DHT22;67726;45.636;11.752;2023-07-29T07:00:27;39.90;28.00
78054;DHT22;67726;45.636;11.752;2023-07-29T07:02:53;39.80;28.40
78054;DHT22;67726;45.636;11.752;2023-07-29T07:05:19;40.00;27.30
78054;DHT22;67726;45.636;11.752;2023-07-29T07:07:44;40.40;27.50
78054;DHT22;67726;45.636;11.752;2023-07-29T07:10:10;40.90;26.80
78054;DHT22;67726;45.636;11.752;2023-07-29T07:12:36;41.50;26.00
78054;DHT22;67726;45.636;11.752;2023-07-29T07:15:02;42.20;25.90
78054;DHT22;67726;45.636;11.752;2023-07-29T07:17:28;42.10;25.20
78054;DHT22;67726;45.636;11.752;2023-07-29T07:19:53;42.20;24.40
78054;DHT22;67726;45.636;11.752;2023-07-29T07:22:19;42.20;24.70
78054;DHT22;67726;45.636;11.752;2023-07-29T07:24:44;42.20;25.00
78054;DHT22;67726;45.636;11.752;2023-07-29T07:27:10;42.20;24.20
78054;DHT22;67726;45.636;11.752;2023-07-29T07:29:36;42.30;24.50
78054;DHT22;67726;45.636;11.752;2023-07-29T07:32:01;0.20;0.20
78054;DHT22;67726;45.636;11.752;2023-07-29T07:34:27;0.20;0.20
78054;DHT22;67726;45.636;11.752;2023-07-29T07:36:53;0.20;0.20
78054;DHT22;67726;45.636;11.752;2023-07-29T07:39:19;0.20;0.20
78054;DHT22;67726;45.636;11.752;2023-07-29T07:41:44;0.20;0.20
78054;DHT22;67726;45.636;11.752;2023-07-29T07:44:10;0.20;0.20
78054;DHT22;67726;45.636;11.752;2023-07-29T07:46:38;0.20;0.20
78054;DHT22;67726;45.636;11.752;2023-07-29T07:49:04;0.20;0.20
78054;DHT22;67726;45.636;11.752;2023-07-29T07:51:31;0.20;0.20
78054;DHT22;67726;45.636;11.752;2023-07-29T07:53:56;0.20;0.20
78054;DHT22;67726;45.636;11.752;2023-07-29T07:56:22;0.20;0.20
78054;DHT22;67726;45.636;11.752;2023-07-29T07:58:48;0.20;0.20
78054;DHT22;67726;45.636;11.752;2023-07-29T08:01:13;0.20;0.20
78054;DHT22;67726;45.636;11.752;2023-07-29T08:03:39;0.20;0.20
78054;DHT22;67726;45.636;11.752;2023-07-29T08:06:05;0.20;0.20
78054;DHT22;67726;45.636;11.752;2023-07-29T08:08:30;0.20;0.20
78054;DHT22;67726;45.636;11.752;2023-07-29T08:10:57;0.20;0.20
78054;DHT22;67726;45.636;11.752;2023-07-29T08:13:24;0.20;0.20
78054;DHT22;67726;45.636;11.752;2023-07-29T08:15:51;0.20;0.20
78054;DHT22;67726;45.636;11.752;2023-07-29T08:18:19;0.20;0.20
78054;DHT22;67726;45.636;11.752;2023-07-29T08:20:55;0.20;0.20
78054;DHT22;67726;45.636;11.752;2023-07-29T08:23:21;0.20;0.20
78054;DHT22;67726;45.636;11.752;2023-07-29T08:25:57;0.20;0.20
78054;DHT22;67726;45.636;11.752;2023-07-29T08:28:33;0.20;0.20
78054;DHT22;67726;45.636;11.752;2023-07-29T08:30:59;0.20;0.20
78054;DHT22;67726;45.636;11.752;2023-07-29T08:33:26;0.20;0.20
78054;DHT22;67726;45.636;11.752;2023-07-29T08:35:52;0.20;0.20
78054;DHT22;67726;45.636;11.752;2023-07-29T08:38:18;0.20;0.20
78054;DHT22;67726;45.636;11.752;2023-07-29T08:43:32;0.20;0.20
78054;DHT22;67726;45.636;11.752;2023-07-29T08:45:59;0.20;0.20
78054;DHT22;67726;45.636;11.752;2023-07-29T08:48:43;0.20;0.20
78054;DHT22;67726;45.636;11.752;2023-07-29T08:51:10;0.20;0.20
78054;DHT22;67726;45.636;11.752;2023-07-29T08:53:37;0.20;0.20
78054;DHT22;67726;45.636;11.752;2023-07-29T08:56:03;0.20;0.20
78054;DHT22;67726;45.636;11.752;2023-07-29T08:58:30;0.20;0.20
78054;DHT22;67726;45.636;11.752;2023-07-29T09:00:56;0.20;0.20
78054;DHT22;67726;45.636;11.752;2023-07-29T09:03:22;0.20;0.20
78054;DHT22;67726;45.636;11.752;2023-07-29T09:05:47;0.20;0.20
78054;DHT22;67726;45.636;11.752;2023-07-29T09:08:14;0.20;0.20
78054;DHT22;67726;45.636;11.752;2023-07-29T09:10:40;0.20;0.20
78054;DHT22;67726;45.636;11.752;2023-07-29T09:13:06;0.20;0.20
78054;DHT22;67726;45.636;11.752;2023-07-29T09:15:34;0.20;0.20
78054;DHT22;67726;45.636;11.752;2023-07-29T09:18:12;0.20;0.20
78054;DHT22;67726;45.636;11.752;2023-07-29T09:20:40;0.20;0.20
78054;DHT22;67726;45.636;11.752;2023-07-29T09:23:08;0.20;0.20
78054;DHT22;67726;45.636;11.752;2023-07-29T09:25:36;0.20;0.20
78054;DHT22;67726;45.636;11.752;2023-07-29T09:28:13;0.20;0.20
78054;DHT22;67726;45.636;11.752;2023-07-29T09:30:39;0.20;0.20
78054;DHT22;67726;45.636;11.752;2023-07-29T09:33:06;0.20;0.20
78054;DHT22;67726;45.636;11.752;2023-07-29T09:35:33;0.20;0.20
78054;DHT22;67726;45.636;11.752;2023-07-29T09:37:59;0.20;0.20
78054;DHT22;67726;45.636;11.752;2023-07-29T09:40:25;0.20;0.20
78054;DHT22;67726;45.636;11.752;2023-07-29T09:42:54;0.20;0.20
78054;DHT22;67726;45.636;11.752;2023-07-29T09:45:24;0.20;0.20
78054;DHT22;67726;45.636;11.752;2023-07-29T09:47:51;0.20;0.20
78054;DHT22;67726;45.636;11.752;2023-07-29T09:50:18;0.20;0.20
78054;DHT22;67726;45.636;11.752;2023-07-29T09:52:44;0.20;0.20
78054;DHT22;67726;45.636;11.752;2023-07-29T09:55:12;0.20;0.20
78054;DHT22;67726;45.636;11.752;2023-07-29T09:57:40;0.20;0.20
78054;DHT22;67726;45.636;11.752;2023-07-29T10:00:06;0.20;0.20
78054;DHT22;67726;45.636;11.752;2023-07-29T10:02:40;0.20;0.20
78054;DHT22;67726;45.636;11.752;2023-07-29T10:05:09;0.20;0.20
78054;DHT22;67726;45.636;11.752;2023-07-29T10:07:37;0.20;0.20
78054;DHT22;67726;45.636;11.752;2023-07-29T10:10:07;0.20;0.20
78054;DHT22;67726;45.636;11.752;2023-07-29T10:12:34;0.20;0.20
78054;DHT22;67726;45.636;11.752;2023-07-29T10:15:04;0.20;0.20
78054;DHT22;67726;45.636;11.752;2023-07-29T10:17:34;0.20;0.20
78054;DHT22;67726;45.636;11.752;2023-07-29T10:20:00;0.20;0.20
78054;DHT22;67726;45.636;11.752;2023-07-29T10:22:33;0.20;0.20
78054;DHT22;67726;45.636;11.752;2023-07-29T10:25:04;0.20;0.20
78054;DHT22;67726;45.636;11.752;2023-07-29T10:27:41;0.20;0.20
78054;DHT22;67726;45.636;11.752;2023-07-29T10:30:10;0.20;0.20
78054;DHT22;67726;45.636;11.752;2023-07-29T10:32:36;0.20;0.20
78054;DHT22;67726;45.636;11.752;2023-07-29T10:35:04;0.20;0.20
78054;DHT22;67726;45.636;11.752;2023-07-29T10:37:30;0.20;0.20
78054;DHT22;67726;45.636;11.752;2023-07-29T10:39:56;0.20;0.20
78054;DHT22;67726;45.636;11.752;2023-07-29T10:42:22;0.20;0.20
78054;DHT22;67726;45.636;11.752;2023-07-29T10:44:49;0.20;0.20
78054;DHT22;67726;45.636;11.752;2023-07-29T10:47:23;0.20;0.20
78054;DHT22;67726;45.636;11.752;2023-07-29T10:49:52;0.20;0.20
78054;DHT22;67726;45.636;11.752;2023-07-29T10:55:01;0.20;0.20
78054;DHT22;67726;45.636;11.752;2023-07-29T10:57:38;0.20;0.20
78054;DHT22;67726;45.636;11.752;2023-07-29T11:00:06;0.20;0.20
78054;DHT22;67726;45.636;11.752;2023-07-29T11:02:36;0.20;0.20
78054;DHT22;67726;45.636;11.752;2023-07-29T11:05:07;0.20;0.20
78054;DHT22;67726;45.636;11.752;2023-07-29T11:07:49;0.20;0.20
78054;DHT22;67726;45.636;11.752;2023-07-29T11:10:15;0.20;0.20
78054;DHT22;67726;45.636;11.752;2023-07-29T11:12:51;0.20;0.20
78054;DHT22;67726;45.636;11.752;2023-07-29T11:15:28;0.20;0.20
78054;DHT22;67726;45.636;11.752;2023-07-29T11:17:59;0.20;0.20
78054;DHT22;67726;45.636;11.752;2023-07-29T11:20:30;0.20;0.20
78054;DHT22;67726;45.636;11.752;2023-07-29T11:23:03;0.20;0.20
78054;DHT22;67726;45.636;11.752;2023-07-29T11:25:30;0.20;0.20
78054;DHT22;67726;45.636;11.752;2023-07-29T11:27:58;0.20;0.20
78054;DHT22;67726;45.636;11.752;2023-07-29T11:30:24;0.20;0.20
78054;DHT22;67726;45.636;11.752;2023-07-29T11:32:54;0.20;0.20
78054;DHT22;67726;45.636;11.752;2023-07-29T11:35:21;0.20;0.20
78054;DHT22;67726;45.636;11.752;2023-07-29T11:37:48;0.20;0.20
78054;DHT22;67726;45.636;11.752;2023-07-29T11:40:21;0.20;0.20
78054;DHT22;67726;45.636;11.752;2023-07-29T11:42:49;0.20;0.20
78054;DHT22;67726;45.636;11.752;2023-07-29T11:45:19;0.20;0.20
78054;DHT22;67726;45.636;11.752;2023-07-29T11:47:45;0.20;0.20
78054;DHT22;67726;45.636;11.752;2023-07-29T11:50:12;0.20;0.20
78054;DHT22;67726;45.636;11.752;2023-07-29T11:52:43;0.20;0.20
78054;DHT22;67726;45.636;11.752;2023-07-29T11:55:09;0.20;0.20
78054;DHT22;67726;45.636;11.752;2023-07-29T11:57:36;0.20;0.20
78054;DHT22;67726;45.636;11.752;2023-07-29T12:00:06;0.20;0.20
78054;DHT22;67726;45.636;11.752;2023-07-29T12:02:37;0.20;0.20
78054;DHT22;67726;45.636;11.752;2023-07-29T12:05:04;0.20;0.20
78054;DHT22;67726;45.636;11.752;2023-07-29T12:07:31;0.20;0.20
78054;DHT22;67726;45.636;11.752;2023-07-29T12:09:59;0.20;0.20
78054;DHT22;67726;45.636;11.752;2023-07-29T12:12:24;0.20;0.20
78054;DHT22;67726;45.636;11.752;2023-07-29T12:14:50;0.20;0.20
78054;DHT22;67726;45.636;11.752;2023-07-29T12:17:16;0.20;0.20
78054;DHT22;67726;45.636;11.752;2023-07-29T12:19:42;0.20;0.20
78054;DHT22;67726;45.636;11.752;2023-07-29T12:22:09;35.50;25.40
78054;DHT22;67726;45.636;11.752;2023-07-29T12:24:37;35.50;25.70
78054;DHT22;67726;45.636;11.752;2023-07-29T12:27:04;35.80;25.50
78054;DHT22;67726;45.636;11.752;2023-07-29T12:29:30;35.90;25.70
78054;DHT22;67726;45.636;11.752;2023-07-29T12:32:03;36.50;25.10
78054;DHT22;67726;45.636;11.752;2023-07-29T12:34:30;36.80;25.20
78054;DHT22;67726;45.636;11.752;2023-07-29T12:36:58;36.50;24.90
78054;DHT22;67726;45.636;11.752;2023-07-29T12:39:27;35.90;25.40
78054;DHT22;67726;45.636;11.752;2023-07-29T12:41:57;36.70;25.00
78054;DHT22;67726;45.636;11.752;2023-07-29T12:44:24;37.40;23.90
78054;DHT22;67726;45.636;11.752;2023-07-29T12:46:50;37.80;22.00
78054;DHT22;67726;45.636;11.752;2023-07-29T12:49:16;37.40;22.80
78054;DHT22;67726;45.636;11.752;2023-07-29T12:51:42;37.70;22.50
78054;DHT22;67726;45.636;11.752;2023-07-29T12:54:08;37.10;24.10
78054;DHT22;67726;45.636;11.752;2023-07-29T12:56:34;37.30;23.60
78054;DHT22;67726;45.636;11.752;2023-07-29T12:59:01;37.50;22.70
78054;DHT22;67726;45.636;11.752;2023-07-29T13:01:27;36.90;24.20
78054;DHT22;67726;45.636;11.752;2023-07-29T13:03:54;35.20;26.50
78054;DHT22;67726;45.636;11.752;2023-07-29T13:06:20;35.40;27.20
78054;DHT22;67726;45.636;11.752;2023-07-29T13:08:46;36.20;25.40
78054;DHT22;67726;45.636;11.752;2023-07-29T13:11:12;36.40;25.30
78054;DHT22;67726;45.636;11.752;2023-07-29T13:13:38;37.10;24.40
78054;DHT22;67726;45.636;11.752;2023-07-29T13:16:04;38.00;23.20
78054;DHT22;67726;45.636;11.752;2023-07-29T13:18:30;38.70;22.20
78054;DHT22;67726;45.636;11.752;2023-07-29T13:20:55;38.40;22.00
78054;DHT22;67726;45.636;11.752;2023-07-29T13:23:21;38.80;21.90
78054;DHT22;67726;45.636;11.752;2023-07-29T13:25:47;39.00;21.50
78054;DHT22;67726;45.636;11.752;2023-07-29T13:28:13;39.40;21.50
78054;DHT22;67726;45.636;11.752;2023-07-29T13:30:39;39.40;21.30
78054;DHT22;67726;45.636;11.752;2023-07-29T13:33:05;38.80;21.70
78054;DHT22;67726;45.636;11.752;2023-07-29T13:35:31;39.30;22.20
78054;DHT22;67726;45.636;11.752;2023-07-29T13:37:57;39.50;21.70
78054;DHT22;67726;45.636;11.752;2023-07-29T13:40:23;39.30;21.30
78054;DHT22;67726;45.636;11.752;2023-07-29T13:42:48;39.40;21.50
78054;DHT22;67726;45.636;11.752;2023-07-29T13:45:14;39.80;21.30
78054;DHT22;67726;45.636;11.752;2023-07-29T13:47:40;39.90;21.40
78054;DHT22;67726;45.636;11.752;2023-07-29T13:50:06;40.50;20.30
78054;DHT22;67726;45.636;11.752;2023-07-29T13:52:36;40.20;20.10
78054;DHT22;67726;45.636;11.752;2023-07-29T13:55:02;39.80;20.90
78054;DHT22;67726;45.636;11.752;2023-07-29T13:57:28;39.80;21.00
78054;DHT22;67726;45.636;11.752;2023-07-29T13:59:53;39.60;21.90
78054;DHT22;67726;45.636;11.752;2023-07-29T14:02:19;40.10;21.10
78054;DHT22;67726;45.636;11.752;2023-07-29T14:04:44;39.60;21.50
78054;DHT22;67726;45.636;11.752;2023-07-29T14:07:10;39.80;21.70
78054;DHT22;67726;45.636;11.752;2023-07-29T14:09:36;39.90;21.20
78054;DHT22;67726;45.636;11.752;2023-07-29T14:12:03;39.50;21.50
78054;DHT22;67726;45.636;11.752;2023-07-29T14:14:28;38.00;23.30
78054;DHT22;67726;45.636;11.752;2023-07-29T14:16:55;38.20;23.50
78054;DHT22;67726;45.636;11.752;2023-07-29T14:19:20;38.10;24.00
78054;DHT22;67726;45.636;11.752;2023-07-29T14:21:46;36.90;26.00
78054;DHT22;67726;45.636;11.752;2023-07-29T14:24:12;36.80;25.90
78054;DHT22;67726;45.636;11.752;2023-07-29T14:26:37;37.20;25.80
78054;DHT22;67726;45.636;11.752;2023-07-29T14:29:03;37.20;25.80
78054;DHT22;67726;45.636;11.752;2023-07-29T14:31:29;37.60;24.70
78054;DHT22;67726;45.636;11.752;2023-07-29T14:33:54;37.70;24.20
78054;DHT22;67726;45.636;11.752;2023-07-29T14:36:20;37.80;24.40
78054;DHT22;67726;45.636;11.752;2023-07-29T14:38:46;37.80;24.90
78054;DHT22;67726;45.636;11.752;2023-07-29T14:41:12;37.40;25.40
78054;DHT22;67726;45.636;11.752;2023-07-29T14:43:37;36.10;28.00
78054;DHT22;67726;45.636;11.752;2023-07-29T14:46:03;36.10;28.50
78054;DHT22;67726;45.636;11.752;2023-07-29T14:48:29;35.40;28.80
78054;DHT22;67726;45.636;11.752;2023-07-29T14:50:55;34.60;29.60
78054;DHT22;67726;45.636;11.752;2023-07-29T14:53:21;34.30;30.90
78054;DHT22;67726;45.636;11.752;2023-07-29T14:55:46;34.60;29.70
78054;DHT22;67726;45.636;11.752;2023-07-29T14:58:12;34.50;31.40
78054;DHT22;67726;45.636;11.752;2023-07-29T15:00:38;34.30;31.80
78054;DHT22;67726;45.636;11.752;2023-07-29T15:03:03;34.40;31.80
78054;DHT22;67726;45.636;11.752;2023-07-29T15:05:29;34.10;31.90
78054;DHT22;67726;45.636;11.752;2023-07-29T15:07:55;34.00;32.90
78054;DHT22;67726;45.636;11.752;2023-07-29T15:10:21;34.00;31.90
78054;DHT22;67726;45.636;11.752;2023-07-29T15:12:46;34.00;32.60
78054;DHT22;67726;45.636;11.752;2023-07-29T15:15:12;33.80;33.60
78054;DHT22;67726;45.636;11.752;2023-07-29T15:17:38;33.70;32.40
78054;DHT22;67726;45.636;11.752;2023-07-29T15:20:04;33.40;33.20
78054;DHT22;67726;45.636;11.752;2023-07-29T15:22:30;33.00;33.80
78054;DHT22;67726;45.636;11.752;2023-07-29T15:25:00;33.10;34.00
78054;DHT22;67726;45.636;11.752;2023-07-29T15:27:27;32.90;34.00
78054;DHT22;67726;45.636;11.752;2023-07-29T15:29:53;32.90;33.60